Williamsburg, Michigan
Current Conditions -  °F | °C
As of 4:28 AM on Thursday 27 Nov 2014 (Local Time) from KTVC Reporting Station
Light Snow Light Snow  
Wind Chill: -7°   Ceiling: 1200
Heat Index: -2°   Visibility: 2.5mi
Dew Point: -4°   Wind: 8mph
Humidity: 85%   Direction: 310°NW
Pressure: 30.13"   Gusts: NA
Location:  44.77°N, 85.4°W
Report Text: KTVC 270928Z AUTO 31007KT 2 1/2SM -SN BR BKN012 OVC017 M02/M04 A3013 RMK AO2 P0000 T10221044
Loading
Personal Weather Stations






























Interactive Weather Map New forecast layout! Learn more

10-Day Weather Forecast

Advertisements
Track Severe Weather on mobile